Terminal Aerodrome Forecast
Issued by NWS

Home | Current Version | Previous Version | Text Only | Print | Product List | Glossary On
Versions: 1 2 3 4 5 6 7 8 9 10 11 12 13 14 15 16 17 18 19 20 21 22 23 24 25
000
FTUS46 KSEW 030310 AAA
TAFSEA
TAF AMD
KSEA 030310Z 0303/0406 23007G16KT P6SM FEW050 SCT120 SCT250
     FM030500 22008KT P6SM SCT070 BKN120
     FM031200 18006KT P6SM SCT012 BKN070
     FM031800 22006KT P6SM SCT025 BKN050=

USA.gov is the U.S. government's official web portal to all federal, state and local government web resources and services.